Time;durP1;ratioP1;P1;durP2;ratioP2;P2;SDS_P1;SDS_P2;PMS_P1;PMS_P2;Temp;Humidity;BMP_temperature;BMP_pressure;BME280_temperature;BME280_humidity;BME280_pressure;Samples;Min_cycle;Max_cycle;Signal;HPM_P1;HPM_P2
2022/12/19 00:02:45;;;;;;;19.50;13.60;;;22.20;48.90;;;;;;211969;1302;22471;-46
2022/12/19 00:07:54;;;;;;;24.00;15.00;;;22.10;48.90;;;;;;212108;1310;24303;-48
2022/12/19 00:12:59;;;;;;;23.00;14.70;;;21.90;49.20;;;;;;212127;1309;155304;-46
2022/12/19 00:18:03;;;;;;;23.50;15.90;;;21.90;49.40;;;;;;212216;1317;22536;-45
2022/12/19 00:23:07;;;;;;;24.50;15.80;;;21.80;49.50;;;;;;212148;1311;24163;-44
2022/12/19 00:28:11;;;;;;;24.10;16.70;;;21.70;49.50;;;;;;211786;1315;22508;-43
2022/12/19 00:33:14;;;;;;;26.40;17.00;;;21.60;49.20;;;;;;211958;1309;23631;-43
2022/12/19 00:38:18;;;;;;;24.50;16.40;;;21.50;49.60;;;;;;212035;1317;22550;-44
2022/12/19 00:43:22;;;;;;;24.30;17.30;;;21.40;49.40;;;;;;212005;1315;24054;-43
2022/12/19 00:48:26;;;;;;;30.80;18.10;;;21.30;49.40;;;;;;212179;1308;29722;-43
2022/12/19 00:53:30;;;;;;;27.40;17.80;;;21.30;49.60;;;;;;211911;1317;24214;-43
2022/12/19 00:58:33;;;;;;;27.20;18.40;;;21.20;49.30;;;;;;211952;1317;24479;-44
2022/12/19 01:03:38;;;;;;;27.00;17.90;;;21.20;49.50;;;;;;212084;1302;24335;-44
2022/12/19 01:08:51;;;;;;;27.10;17.10;;;21.20;49.70;;;;;;213034;1305;22486;-49
2022/12/19 01:13:57;;;;;;;25.20;17.00;;;21.50;49.60;;;;;;211929;1316;22547;-46
2022/12/19 01:19:00;;;;;;;28.10;16.90;;;21.90;48.20;;;;;;212026;1311;23892;-42
2022/12/19 01:24:07;;;;;;;28.70;17.40;;;22.20;47.60;;;;;;211977;1317;25410;-43
2022/12/19 01:29:11;;;;;;;25.90;17.00;;;22.40;47.10;;;;;;211845;1302;22601;-47
2022/12/19 01:34:15;;;;;;;26.30;17.10;;;22.50;46.80;;;;;;211834;1317;22525;-43
2022/12/19 01:39:18;;;;;;;29.00;18.60;;;22.70;46.40;;;;;;215208;1312;22505;-46
2022/12/19 01:44:25;;;;;;;27.40;18.20;;;22.80;46.20;;;;;;213048;1309;22505;-44
2022/12/19 01:49:34;;;;;;;28.10;18.90;;;22.80;45.80;;;;;;212086;1309;22566;-43
2022/12/19 01:54:40;;;;;;;29.00;18.60;;;22.80;46.10;;;;;;212040;1306;22553;-44
2022/12/19 01:59:55;;;;;;;26.30;18.90;;;22.80;46.30;;;;;;211974;1303;22732;-43
2022/12/19 02:05:02;;;;;;;29.90;18.60;;;22.80;46.30;;;;;;212069;1309;22488;-43
2022/12/19 02:10:06;;;;;;;28.60;18.30;;;22.80;45.90;;;;;;211835;1317;24247;-44
2022/12/19 02:15:14;;;;;;;27.80;18.20;;;22.80;45.90;;;;;;212051;1300;22695;-46
2022/12/19 02:21:02;;;;;;;27.90;18.50;;;22.90;45.80;;;;;;212032;1301;24431;-46
2022/12/19 02:26:15;;;;;;;31.80;20.10;;;22.90;45.60;;;;;;211639;1311;24332;-45
2022/12/19 02:31:28;;;;;;;29.60;18.40;;;22.90;45.50;;;;;;211843;1309;25040;-44
2022/12/19 08:09:06;;;;;;;27.10;16.50;;;22.00;47.40;;;;;;212007;1296;24270;-46
2022/12/19 08:14:12;;;;;;;29.30;17.60;;;22.00;47.30;;;;;;212066;1313;23907;-45
2022/12/19 08:19:23;;;;;;;24.90;17.60;;;21.80;46.10;;;;;;212151;1297;22490;-45
2022/12/19 08:24:33;;;;;;;32.10;16.90;;;21.70;46.00;;;;;;211842;1296;23309;-45
2022/12/19 08:29:39;;;;;;;26.20;17.00;;;21.70;46.40;;;;;;211961;1300;24300;-45
2022/12/19 08:34:44;;;;;;;28.10;16.40;;;21.70;46.40;;;;;;212124;1317;24423;-46
2022/12/19 08:39:48;;;;;;;23.80;15.00;;;21.60;46.40;;;;;;212073;1315;22497;-47
2022/12/19 08:44:52;;;;;;;28.70;16.80;;;21.50;46.70;;;;;;212218;1316;23926;-46
2022/12/19 08:49:56;;;;;;;32.70;15.40;;;21.40;46.60;;;;;;212004;1301;24248;-48
2022/12/19 08:55:01;;;;;;;34.10;17.50;;;21.40;47.00;;;;;;212082;1312;22473;-45
2022/12/19 09:00:05;;;;;;;34.30;17.80;;;21.30;49.00;;;;;;212143;1318;24453;-46
2022/12/19 09:33:30;;;;;;;28.60;15.50;;;21.10;50.00;;;;;;211955;1318;25450;-46
2022/12/19 09:38:57;;;;;;;27.20;13.40;;;21.10;49.80;;;;;;212172;1297;22495;-44
2022/12/19 09:44:45;;;;;;;25.50;14.00;;;21.10;49.70;;;;;;212164;1300;24317;-44
2022/12/19 09:49:56;;;;;;;29.00;16.40;;;21.40;49.20;;;;;;212184;1300;24291;-43
2022/12/19 09:55:32;;;;;;;29.10;15.40;;;21.90;48.50;;;;;;212126;1299;24227;-43
2022/12/19 10:00:42;;;;;;;26.00;14.80;;;22.20;48.00;;;;;;212256;1315;23894;-44
2022/12/19 10:05:50;;;;;;;26.00;13.60;;;22.30;47.80;;;;;;212157;1309;22478;-45
2022/12/19 10:11:37;;;;;;;33.60;14.00;;;22.40;47.60;;;;;;211778;1294;24682;-44
2022/12/19 10:17:23;;;;;;;22.10;14.10;;;22.40;47.60;;;;;;212104;1316;25226;-45
2022/12/19 10:22:54;;;;;;;21.70;14.10;;;22.60;47.20;;;;;;212067;1296;22496;-44
2022/12/19 10:28:27;;;;;;;25.30;14.20;;;22.70;46.70;;;;;;212177;1296;22615;-47
2022/12/19 10:33:42;;;;;;;26.00;13.40;;;22.70;46.10;;;;;;212236;1315;22643;-42
2022/12/19 10:38:53;;;;;;;24.70;13.30;;;22.80;45.60;;;;;;212058;1299;22525;-46
2022/12/19 10:44:08;;;;;;;21.70;12.80;;;22.90;46.20;;;;;;212166;1315;25399;-45
2022/12/19 10:49:18;;;;;;;22.60;14.00;;;22.90;45.70;;;;;;212198;1309;22731;-44
2022/12/19 10:54:22;;;;;;;21.10;13.30;;;23.10;45.40;;;;;;211974;1312;22485;-44
2022/12/19 10:59:35;;;;;;;19.70;13.10;;;23.10;45.30;;;;;;212136;1312;22494;-46
2022/12/19 11:04:39;;;;;;;18.50;12.00;;;23.20;46.20;;;;;;212147;1302;24451;-46
2022/12/19 11:09:44;;;;;;;17.70;11.70;;;23.10;47.50;;;;;;212152;1309;25482;-43
2022/12/19 11:15:13;;;;;;;19.70;12.60;;;23.00;49.10;;;;;;211999;1317;25346;-43
2022/12/19 11:20:37;;;;;;;21.50;12.70;;;22.90;50.60;;;;;;212067;1295;23875;-42
2022/12/19 11:26:04;;;;;;;18.50;11.60;;;22.60;51.00;;;;;;211996;1302;24432;-42
2022/12/19 11:31:29;;;;;;;20.30;11.40;;;22.40;52.70;;;;;;211949;1318;22548;-43
2022/12/19 11:37:20;;;;;;;18.10;11.70;;;22.30;53.70;;;;;;212083;1318;25357;-44
2022/12/19 11:42:25;;;;;;;;;;;22.20;53.70;;;;;;212151;1310;24214;-47
2022/12/19 11:47:44;;;;;;;18.60;11.50;;;22.10;54.10;;;;;;212165;1306;24242;-45
2022/12/19 11:53:02;;;;;;;17.60;10.50;;;22.00;54.20;;;;;;212066;1305;22490;-43
2022/12/19 11:58:13;;;;;;;17.70;11.40;;;21.80;54.80;;;;;;212050;1316;23872;-48
2022/12/19 12:03:43;;;;;;;15.90;10.60;;;21.80;55.70;;;;;;212240;1309;22477;-46
2022/12/19 12:09:11;;;;;;;18.80;9.60;;;21.70;55.40;;;;;;212086;1312;23935;-46
2022/12/19 12:15:16;;;;;;;17.00;10.60;;;21.60;55.50;;;;;;211929;1310;179382;-46
2022/12/19 12:21:21;;;;;;;14.30;9.60;;;21.60;56.00;;;;;;211887;1312;23153;-45
2022/12/19 12:26:57;;;;;;;14.80;8.90;;;21.50;56.20;;;;;;212142;1301;22714;-43
2022/12/19 12:33:00;;;;;;;17.40;9.90;;;21.50;56.10;;;;;;212082;1312;23869;-43
2022/12/19 12:39:26;;;;;;;16.70;10.40;;;21.40;56.40;;;;;;212062;1318;22492;-42
2022/12/19 12:44:41;;;;;;;14.70;9.40;;;21.30;56.50;;;;;;211936;1318;22601;-44
2022/12/19 12:49:58;;;;;;;15.20;10.20;;;21.30;56.80;;;;;;212084;1305;22492;-44
2022/12/19 12:55:04;;;;;;;14.60;9.90;;;21.20;56.60;;;;;;212101;1317;22488;-43
2022/12/19 13:00:22;;;;;;;13.40;9.50;;;21.10;57.00;;;;;;212095;1303;25254;-43
2022/12/19 13:05:45;;;;;;;16.00;9.90;;;21.10;57.00;;;;;;212216;1303;24437;-42
2022/12/19 13:10:58;;;;;;;16.30;10.00;;;21.10;56.70;;;;;;212037;1300;22875;-43
2022/12/19 13:16:39;;;;;;;13.30;8.90;;;20.90;56.90;;;;;;211974;1299;24252;-41
2022/12/19 13:22:02;;;;;;;14.60;8.60;;;20.90;57.50;;;;;;212210;1300;24080;-45
2022/12/19 13:27:18;;;;;;;13.50;9.50;;;20.90;57.20;;;;;;211997;1317;23269;-42
2022/12/19 13:32:22;;;;;;;13.60;9.10;;;20.80;58.00;;;;;;212149;1296;24259;-42
2022/12/19 13:37:40;;;;;;;13.30;8.30;;;20.80;57.80;;;;;;212271;1290;22859;-43
2022/12/19 13:48:43;;;;;;;12.80;8.20;;;21.30;56.20;;;;;;212115;1303;22497;-42
2022/12/19 13:53:57;;;;;;;12.60;8.30;;;21.50;55.70;;;;;;212073;1299;22480;-44
2022/12/19 13:59:04;;;;;;;12.50;8.30;;;21.60;55.50;;;;;;212063;1312;23870;-43
2022/12/19 14:04:26;;;;;;;12.80;8.60;;;21.70;55.40;;;;;;212048;1300;22511;-41
2022/12/19 14:09:41;;;;;;;14.70;8.30;;;21.80;55.60;;;;;;211961;1297;23020;-42
2022/12/19 14:15:30;;;;;;;15.20;8.90;;;21.90;55.10;;;;;;211833;1303;22477;-41
2022/12/19 14:20:37;;;;;;;22.30;9.20;;;21.90;54.30;;;;;;219755;1306;23338;-43
2022/12/19 14:26:07;;;;;;;13.00;9.20;;;21.90;53.20;;;;;;212262;1311;22548;-42
2022/12/19 14:31:34;;;;;;;12.40;8.40;;;21.90;53.30;;;;;;212040;1296;24390;-42
2022/12/19 14:36:39;;;;;;;13.30;9.10;;;21.90;53.30;;;;;;212255;1312;25268;-41
2022/12/19 14:47:21;;;;;;;12.40;8.20;;;22.00;53.40;;;;;;212167;1297;22487;-42
2022/12/19 14:52:45;;;;;;;11.30;7.50;;;22.20;54.00;;;;;;212118;1305;22588;-44
2022/12/19 14:58:14;;;;;;;11.80;8.10;;;22.10;53.20;;;;;;211947;1299;24253;-40
2022/12/19 15:03:46;;;;;;;11.40;7.90;;;22.20;53.30;;;;;;212049;1304;24264;-42
2022/12/19 15:09:17;;;;;;;12.50;7.90;;;22.20;53.40;;;;;;212116;1312;22533;-41
2022/12/19 15:14:45;;;;;;;10.90;7.80;;;22.20;53.30;;;;;;212166;1301;22618;-41
2022/12/19 15:20:01;;;;;;;14.30;9.40;;;22.30;53.00;;;;;;211967;1300;22493;-42
2022/12/19 15:25:12;;;;;;;16.20;8.60;;;22.30;52.80;;;;;;211874;1301;25308;-40
2022/12/19 15:30:39;;;;;;;15.90;8.20;;;22.20;53.30;;;;;;212027;1298;22655;-49
2022/12/19 15:35:43;;;;;;;11.70;7.90;;;22.20;54.50;;;;;;212245;1300;22502;-43
2022/12/19 15:40:48;;;;;;;13.60;7.70;;;22.10;54.90;;;;;;211992;1309;22552;-42
2022/12/19 15:45:57;;;;;;;11.90;8.50;;;22.20;55.80;;;;;;212292;1310;24784;-44
2022/12/19 15:51:04;;;;;;;13.00;9.20;;;22.20;55.80;;;;;;212242;1303;24422;-44
2022/12/19 15:56:27;;;;;;;12.00;7.90;;;22.30;56.10;;;;;;212186;1297;24338;-44
2022/12/19 16:01:32;;;;;;;11.00;7.90;;;22.40;56.80;;;;;;212064;1310;24216;-42
2022/12/19 16:06:37;;;;;;;13.10;8.30;;;22.40;56.40;;;;;;212085;1303;24396;-45
2022/12/19 16:11:40;;;;;;;11.90;8.50;;;22.40;56.50;;;;;;211896;1309;23673;-43
2022/12/19 16:16:51;;;;;;;15.00;9.10;;;22.40;56.60;;;;;;212826;1301;22545;-42
2022/12/19 16:21:59;;;;;;;12.90;8.60;;;22.50;57.30;;;;;;211893;1316;22710;-42
2022/12/19 16:27:30;;;;;;;14.20;8.60;;;22.50;57.10;;;;;;212036;1299;22497;-43
2022/12/19 16:32:33;;;;;;;12.80;8.30;;;22.40;57.50;;;;;;212079;1310;22505;-44
2022/12/19 16:37:37;;;;;;;13.30;8.10;;;22.30;57.40;;;;;;212011;1290;24439;-41
2022/12/19 16:42:43;;;;;;;13.90;8.40;;;22.30;57.30;;;;;;212226;1297;22604;-42
2022/12/19 16:47:48;;;;;;;13.50;8.40;;;22.20;57.10;;;;;;212097;1300;25124;-43
2022/12/19 16:52:53;;;;;;;13.00;7.70;;;22.10;57.60;;;;;;211890;1297;24371;-43
2022/12/19 16:58:00;;;;;;;41.80;16.00;;;22.00;57.90;;;;;;211934;1299;22686;-46
2022/12/19 17:03:35;;;;;;;15.50;7.70;;;22.10;58.00;;;;;;212051;1302;22507;-46
2022/12/19 17:08:40;;;;;;;13.50;8.20;;;22.30;56.80;;;;;;212055;1309;23863;-44
2022/12/19 17:13:48;;;;;;;15.60;8.60;;;22.20;56.40;;;;;;212035;1305;22528;-45
2022/12/19 17:18:54;;;;;;;17.20;8.80;;;21.90;56.40;;;;;;211994;1303;22486;-50
2022/12/19 17:24:00;;;;;;;13.10;8.10;;;21.90;57.00;;;;;;212116;1294;23824;-44
2022/12/19 17:29:04;;;;;;;18.80;9.40;;;21.90;58.60;;;;;;212167;1300;25224;-44
2022/12/19 17:34:23;;;;;;;19.00;10.00;;;21.80;59.50;;;;;;212086;1304;24322;-44
2022/12/19 17:39:30;;;;;;;26.10;12.40;;;21.80;59.50;;;;;;211909;1312;23988;-44
2022/12/19 17:44:37;;;;;;;25.40;10.40;;;21.70;59.90;;;;;;211971;1300;21870;-43
2022/12/19 17:49:42;;;;;;;19.80;12.10;;;21.70;60.30;;;;;;212109;1300;25353;-43
2022/12/19 17:54:46;;;;;;;19.70;10.70;;;21.70;63.90;;;;;;211980;1301;25612;-45
2022/12/19 17:59:53;;;;;;;19.20;9.50;;;21.70;62.90;;;;;;211992;1296;22484;-43
2022/12/19 18:04:57;;;;;;;24.30;11.50;;;21.60;62.20;;;;;;211994;1317;25461;-45
2022/12/19 18:10:01;;;;;;;17.10;10.10;;;21.50;61.20;;;;;;213718;1309;24083;-44
2022/12/19 18:15:05;;;;;;;18.20;11.20;;;21.40;60.60;;;;;;213616;1310;24723;-49
2022/12/19 18:20:35;;;;;;;19.00;10.60;;;21.30;59.80;;;;;;211995;1316;22484;-44
2022/12/19 18:25:45;;;;;;;19.10;10.40;;;21.30;59.70;;;;;;212174;1314;25302;-46
2022/12/19 18:31:29;;;;;;;18.00;10.70;;;21.20;60.40;;;;;;212032;1301;22492;-46
2022/12/19 18:36:52;;;;;;;14.90;10.20;;;21.10;59.50;;;;;;215070;1302;23816;-49
2022/12/19 18:42:01;;;;;;;19.80;10.20;;;21.10;59.20;;;;;;215642;1301;25388;-46
2022/12/19 18:47:22;;;;;;;16.00;10.40;;;21.10;60.80;;;;;;211711;1299;22496;-43
2022/12/19 18:52:33;;;;;;;16.20;10.20;;;21.20;60.50;;;;;;212721;1306;22511;-42
2022/12/19 18:58:20;;;;;;;20.80;10.50;;;21.10;60.80;;;;;;212563;1314;22619;-45
2022/12/19 19:03:43;;;;;;;15.90;9.90;;;21.10;60.10;;;;;;211874;1306;22494;-46
2022/12/19 19:08:51;;;;;;;16.40;9.90;;;21.20;59.20;;;;;;211991;1296;22551;-42
2022/12/19 19:14:30;;;;;;;13.70;9.00;;;21.30;58.30;;;;;;212111;1310;23914;-43
2022/12/19 19:19:37;;;;;;;16.60;9.70;;;21.40;58.20;;;;;;212134;1296;22503;-47
2022/12/19 19:24:43;;;;;;;16.70;10.10;;;21.50;57.80;;;;;;212266;1309;22668;-47
2022/12/19 19:29:53;;;;;;;13.70;8.60;;;21.60;57.40;;;;;;212112;1302;25621;-48
2022/12/19 19:34:59;;;;;;;13.10;8.80;;;21.60;57.00;;;;;;212070;1299;24323;-42
2022/12/19 19:40:13;;;;;;;17.20;9.60;;;21.70;56.40;;;;;;212516;1297;23585;-43
2022/12/19 19:45:19;;;;;;;14.40;9.50;;;21.90;55.90;;;;;;212150;1300;24272;-41
2022/12/19 19:50:35;;;;;;;14.10;8.40;;;22.00;55.50;;;;;;212217;1304;22891;-43
2022/12/19 19:55:40;;;;;;;15.20;7.90;;;22.10;55.50;;;;;;212044;1302;24441;-43
2022/12/19 20:00:46;;;;;;;17.80;8.60;;;22.10;55.50;;;;;;212178;1290;24227;-42
2022/12/19 20:06:04;;;;;;;20.80;9.10;;;22.30;55.00;;;;;;212118;1297;25553;-41
2022/12/19 20:11:10;;;;;;;15.20;8.70;;;22.40;55.40;;;;;;212122;1290;24332;-42
2022/12/19 20:16:21;;;;;;;17.40;9.20;;;22.40;54.90;;;;;;211776;1300;25970;-41
2022/12/19 20:21:28;;;;;;;18.20;9.40;;;22.40;54.80;;;;;;212038;1293;23514;-42
2022/12/19 20:26:32;;;;;;;20.50;8.90;;;22.50;55.00;;;;;;212144;1302;24696;-43
2022/12/19 20:31:38;;;;;;;23.70;9.20;;;22.40;55.50;;;;;;212163;1299;23867;-45
2022/12/19 20:36:44;;;;;;;17.50;8.30;;;22.40;55.20;;;;;;212114;1310;24034;-42
2022/12/19 20:41:52;;;;;;;18.10;8.60;;;22.50;55.20;;;;;;211908;1305;22557;-42
2022/12/19 20:46:57;;;;;;;13.70;7.80;;;22.50;54.90;;;;;;212251;1296;22493;-41
2022/12/19 20:52:02;;;;;;;15.90;8.00;;;22.50;55.20;;;;;;212228;1317;26694;-44
2022/12/19 20:57:06;;;;;;;15.60;8.50;;;22.50;54.60;;;;;;212278;1296;22499;-41
2022/12/19 21:02:20;;;;;;;16.00;8.10;;;22.50;54.70;;;;;;212258;1300;24433;-43
2022/12/19 21:07:30;;;;;;;14.40;8.60;;;22.50;54.40;;;;;;212051;1299;24280;-50
2022/12/19 21:12:40;;;;;;;14.40;7.70;;;22.50;54.30;;;;;;211987;1312;22485;-40
2022/12/19 21:17:53;;;;;;;13.00;7.50;;;22.40;54.30;;;;;;211925;1305;22596;-40
2022/12/19 21:23:06;;;;;;;17.60;8.30;;;22.40;54.60;;;;;;211945;1317;24078;-41
2022/12/19 21:28:14;;;;;;;12.50;7.80;;;22.40;54.00;;;;;;212113;1306;25491;-41
2022/12/19 21:33:36;;;;;;;13.90;7.00;;;22.40;53.90;;;;;;212144;1312;23105;-41
2022/12/19 21:38:42;;;;;;;13.30;7.60;;;22.50;53.60;;;;;;212389;1307;24073;-42
2022/12/19 21:43:50;;;;;;;13.50;8.30;;;22.50;53.50;;;;;;212092;1297;22485;-43
2022/12/19 21:48:58;;;;;;;13.20;7.40;;;22.60;53.80;;;;;;211898;1303;22481;-42
2022/12/19 21:54:03;;;;;;;11.00;7.80;;;22.60;53.10;;;;;;211990;1306;25749;-41
2022/12/19 21:59:14;;;;;;;11.30;7.30;;;22.50;53.30;;;;;;211988;1316;22491;-40
2022/12/19 22:04:22;;;;;;;12.30;7.50;;;22.50;53.30;;;;;;212019;1303;22476;-41
2022/12/19 22:09:30;;;;;;;16.60;8.60;;;22.50;55.90;;;;;;211980;1307;25330;-41
2022/12/19 22:14:43;;;;;;;14.90;8.00;;;22.50;56.30;;;;;;212044;1303;23753;-44
2022/12/19 22:19:50;;;;;;;15.60;9.80;;;22.40;55.80;;;;;;211721;1315;22545;-42
2022/12/19 22:24:57;;;;;;;14.50;8.70;;;22.30;55.00;;;;;;212053;1306;22638;-39
2022/12/19 22:30:01;;;;;;;15.60;9.90;;;22.30;55.10;;;;;;212016;1301;23082;-40
2022/12/19 22:35:13;;;;;;;17.20;8.90;;;22.20;55.10;;;;;;211914;1302;25349;-40
2022/12/19 22:40:18;;;;;;;14.00;8.60;;;22.20;55.00;;;;;;212029;1299;25556;-41
2022/12/19 22:45:22;;;;;;;16.20;8.50;;;22.20;55.40;;;;;;211892;1317;22504;-40
2022/12/19 22:50:26;;;;;;;18.60;9.10;;;22.00;55.70;;;;;;212055;1299;24695;-42
2022/12/19 22:55:33;;;;;;;16.90;8.90;;;21.90;57.30;;;;;;211945;1310;23880;-41
2022/12/19 23:00:37;;;;;;;20.00;8.90;;;22.00;58.60;;;;;;211991;1308;25163;-41
2022/12/19 23:05:41;;;;;;;14.20;8.20;;;21.90;58.90;;;;;;211853;1314;22606;-40
2022/12/19 23:10:52;;;;;;;13.80;7.80;;;21.80;58.60;;;;;;212277;1317;23862;-41
2022/12/19 23:15:56;;;;;;;15.30;8.10;;;21.80;58.50;;;;;;211949;1305;25264;-41
2022/12/19 23:21:06;;;;;;;14.40;8.40;;;21.70;58.30;;;;;;211944;1305;22490;-41
2022/12/19 23:26:13;;;;;;;;;;;21.70;58.20;;;;;;211866;1301;22630;-40
2022/12/19 23:31:19;;;;;;;20.00;9.40;;;21.70;58.40;;;;;;211685;1302;23259;-41
2022/12/19 23:36:30;;;;;;;15.00;8.40;;;21.50;57.60;;;;;;212237;1292;25322;-40
2022/12/19 23:41:55;;;;;;;14.00;7.70;;;21.50;57.70;;;;;;211771;1295;25410;-40
2022/12/19 23:46:59;;;;;;;14.20;8.10;;;21.50;57.40;;;;;;211836;1300;24256;-40
2022/12/19 23:52:06;;;;;;;11.40;7.20;;;21.40;57.20;;;;;;211857;1316;22577;-41
2022/12/19 23:57:10;;;;;;;13.30;7.90;;;21.40;57.10;;;;;;211920;1309;24213;-42
